Latest Weather Observations for Bankstown

IDN60801

Issued at 2:32 am EST Wednesday 1 July 2015 (issued every 30 minutes, with the page automatically refreshed every 10 minutes)

About weather observations | Map of weather stations | Latest weather observations for NSW | Other Formats
Station Details ID: 066137 Name: BANKSTOWN AIRPORT AWS Lat: -33.92 Lon: 150.99 Height: 6.5 m
Data from the previous 72 hours. | See also: Recent months at Bankstown
Date/Time
EST
Temp
°C
App
Temp
°C
Dew
Point
Rel
Hum
%
Delta-T
°C
Wind Press
QNH
hPa
Press
MSL
hPa
Rain
since 9 am
mm
Dir
 
Spd
km/h
Gust
km/h
Spd
kts
Gust
kts
01/02:30am 11.5 9.6 6.8 73 2.2 NNW 6 7 3 4 1024.9 1024.9 0.0
01/02:00am 11.1 9.5 6.5 73 2.2 WSW 4 9 2 5 1025.2 1025.2 0.0
01/01:30am 11.0 8.9 6.7 75 2.0 WSW 7 9 4 5 1024.9 1024.9 0.0
01/01:00am 11.0 10.2 6.7 75 2.0 CALM 0 4 0 2 1024.9 1024.9 0.0
01/12:30am 10.7 9.1 6.5 75 2.0 SSW 4 9 2 5 1025.1 1025.1 0.0
01/12:00am 11.1 9.0 6.6 74 2.1 SSE 7 9 4 5 1025.1 1025.1 0.0
 
Date/Time
EST
Temp
°C
App
Temp
°C
Dew
Point
Rel
Hum
%
Delta-T
°C
Wind Press
QNH
hPa
Press
MSL
hPa
Rain
since 9 am
mm
Dir
 
Spd
km/h
Gust
km/h
Spd
kts
Gust
kts
30/11:30pm 11.5 9.1 7.0 74 2.1 SW 9 11 5 6 1025.2 1025.2 0.0
30/11:00pm 11.7 10.1 8.0 78 1.8 SW 6 9 3 5 1025.4 1025.4 0.0
30/10:30pm 11.6 10.0 8.6 82 1.5 WNW 7 9 4 5 1025.6 1025.6 0.0
30/10:00pm 12.2 12.0 8.9 80 1.6 CALM 0 0 0 0 1025.8 1025.8 0.0
30/09:30pm 11.7 10.3 8.7 82 1.5 N 6 7 3 4 1025.8 1025.8 0.0
30/09:00pm 11.5 11.2 8.5 82 1.5 CALM 0 0 0 0 1025.7 1025.7 0.0
30/08:30pm 11.3 10.8 8.0 80 1.6 CALM 0 0 0 0 1025.6 1025.6 0.0
30/08:00pm 13.0 12.6 8.3 73 2.3 CALM 0 0 0 0 1025.5 1025.5 0.0
30/07:30pm 13.4 13.2 9.1 75 2.2 CALM 0 0 0 0 1025.5 1025.5 0.0
30/07:00pm 13.2 12.9 8.7 74 2.2 CALM 0 0 0 0 1025.6 1025.6 0.0
30/06:30pm 13.5 13.2 8.8 73 2.4 CALM 0 0 0 0 1025.4 1025.4 0.0
30/06:00pm 14.1 13.8 8.7 70 2.7 CALM 0 0 0 0 1024.9 1024.9 0.0
30/05:30pm 14.6 13.9 8.5 67 3.1 SW 2 9 1 5 1024.9 1024.9 0.0
30/05:00pm 13.5 12.1 7.3 66 3.0 WNW 4 9 2 5 1025.0 1025.0 0.0
30/04:30pm 16.1 14.6 6.8 54 4.6 N 4 7 2 4 1024.7 1024.7 0.0
30/04:00pm 16.8 14.8 6.3 50 5.1 NNW 6 7 3 4 1025.0 1025.0 0.0
30/03:30pm 17.3 14.6 5.6 46 5.7 NNW 9 11 5 6 1024.9 1024.9 0.0
30/03:00pm 18.2 15.5 5.8 44 6.0 NNW 9 11 5 6 1024.8 1024.8 0.0
30/02:30pm 17.6 14.6 6.2 47 5.6 NNW 11 13 6 7 1025.1 1025.1 0.0
30/02:00pm 17.7 15.6 6.6 48 5.5 NNW 7 13 4 7 1025.2 1025.2 0.0
30/01:30pm 16.4 14.0 6.8 53 4.7 NW 9 13 5 7 1025.7 1025.7 0.0
30/01:00pm 15.8 13.7 6.8 55 4.4 NW 7 13 4 7 1026.2 1026.2 0.0
30/12:30pm 15.5 13.7 7.8 60 3.8 WNW 7 9 4 5 1026.7 1026.7 0.0
30/12:00pm 13.8 11.6 8.0 68 2.9 WNW 9 11 5 6 1027.4 1027.4 0.0
30/11:30am 12.7 10.5 8.0 73 2.3 WNW 9 11 5 6 1028.1 1028.1 0.0
30/11:00am 12.1 10.4 8.4 78 1.8 W 7 9 4 5 1028.5 1028.5 0.0
30/10:30am 11.6 9.6 8.6 82 1.5 NW 9 11 5 6 1028.9 1028.9 0.0
30/10:00am 10.2 7.8 8.5 89 0.8 NNW 11 13 6 7 1029.3 1029.3 0.0
30/09:30am 9.3 7.5 7.9 91 0.7 WNW 7 9 4 5 1029.7 1029.7 0.0
30/09:00am 8.7 6.4 7.5 92 0.6 NW 9 13 5 7 1029.6 1029.6 0.0
30/08:30am 8.3 6.3 7.1 92 0.6 NW 7 9 4 5 1029.5 1029.5 0.0
30/08:05am 7.5 5.5 6.3 92 0.5 NW 6 7 3 4 1029.3 1029.3 0.0
30/08:00am 7.4 5.4 6.2 92 0.5 NW 6 7 3 4 1029.4 1029.4 0.0
30/07:35am 6.0 3.1 4.8 92 0.5 N 9 9 5 5 1029.1 1029.1 0.0
30/07:30am 6.3 3.9 5.1 92 0.5 N 7 9 4 5 1029.0 1029.0 0.0
30/07:20am 6.0 4.8 4.8 92 0.5 CALM 0 0 0 0 1029.0 1029.0 0.0
30/07:00am 5.5 4.2 4.2 91 0.5 CALM 0 0 0 0 1029.0 1029.0 0.0
30/06:54am 5.4 4.1 4.1 91 0.6 CALM 0 0 0 0 1029.0 1029.0 0.0
30/06:34am 5.3 4.0 4.0 91 0.5 CALM 0 0 0 0 1028.9 1028.9 0.0
30/06:30am 5.1 3.7 3.8 91 0.5 CALM 0 0 0 0 1028.9 1028.9 0.0
30/06:06am 4.6 3.2 3.3 91 0.5 CALM 0 0 0 0 1028.8 1028.8 0.0
30/06:00am 5.0 3.6 3.7 91 0.5 CALM 0 0 0 0 1028.7 1028.7 0.0
30/05:30am 5.7 4.4 4.3 91 0.6 CALM 0 0 0 0 1028.6 1028.6 0.0
30/05:16am 5.3 4.0 4.0 91 0.5 CALM 0 0 0 0 1028.7 1028.7 0.0
30/05:00am 5.3 3.2 4.0 91 0.5 NE 4 6 2 3 1028.7 1028.7 0.0
30/04:56am 5.4 3.0 4.1 91 0.6 NE 6 6 3 3 1028.7 1028.7 0.0
30/04:30am 5.4 3.7 3.9 90 0.6 NE 2 6 1 3 1028.5 1028.5 0.0
30/04:16am 5.4 4.1 3.9 90 0.6 CALM 0 0 0 0 1028.4 1028.4 0.0
30/04:07am 6.0 4.8 4.5 90 0.6 CALM 0 0 0 0 1028.3 1028.3 0.0
30/04:00am 6.4 5.3 5.0 91 0.6 CALM 0 0 0 0 1028.4 1028.4 0.0
30/03:34am 5.6 4.3 4.1 90 0.6 CALM 0 0 0 0 1028.7 1028.7 0.0
30/03:30am 5.7 4.4 4.2 90 0.6 CALM 0 0 0 0 1028.7 1028.7 0.0
30/03:13am 5.6 4.3 4.1 90 0.6 CALM 0 0 0 0 1028.9 1028.9 0.0
30/03:00am 6.1 4.9 4.6 90 0.6 CALM 0 0 0 0 1029.1 1029.1 0.0
30/02:35am 5.7 4.4 4.2 90 0.6 CALM 0 0 0 0 1029.1 1029.1 0.0
30/02:30am 6.2 5.0 4.7 90 0.6 CALM 0 0 0 0 1029.2 1029.2 0.0
30/02:21am 6.0 4.8 4.5 90 0.6 CALM 0 0 0 0 1029.2 1029.2 0.0
30/02:00am 6.2 5.0 4.5 89 0.7 CALM 0 0 0 0 1029.2 1029.2 0.0
30/01:50am 5.9 4.6 4.2 89 0.7 CALM 0 0 0 0 1029.3 1029.3 0.0
30/01:30am 6.3 5.1 4.6 89 0.7 CALM 0 0 0 0 1029.4 1029.4 0.0
30/01:00am 6.6 5.5 4.9 89 0.7 CALM 0 0 0 0 1029.4 1029.4 0.0
30/12:55am 6.7 5.6 5.0 89 0.7 CALM 0 0 0 0 1029.4 1029.4 0.0
30/12:48am 7.1 6.1 5.4 89 0.8 CALM 0 0 0 0 1029.4 1029.4 0.0
30/12:30am 6.8 5.7 5.1 89 0.7 CALM 0 0 0 0 1029.7 1029.7 0.0
30/12:00am 7.4 6.4 5.5 88 0.8 CALM 0 0 0 0 1029.9 1029.9 0.0
 
Date/Time
EST
Temp
°C
App
Temp
°C
Dew
Point
Rel
Hum
%
Delta-T
°C
Wind Press
QNH
hPa
Press
MSL
hPa
Rain
since 9 am
mm
Dir
 
Spd
km/h
Gust
km/h
Spd
kts
Gust
kts
29/11:43pm 7.8 6.9 5.9 88 0.9 CALM 0 0 0 0 1030.1 1030.1 0.0
29/11:32pm 7.7 6.7 5.8 88 0.9 CALM 0 0 0 0 1030.3 1030.3 0.0
29/11:30pm 7.8 6.9 5.9 88 0.9 CALM 0 0 0 0 1030.4 1030.4 0.0
29/11:07pm 7.9 7.0 6.0 88 0.9 CALM 0 0 0 0 1030.5 1030.5 0.0
29/11:00pm 7.9 7.0 6.0 88 0.9 CALM 0 0 0 0 1030.5 1030.5 0.0
29/10:30pm 8.8 8.1 6.9 88 0.9 CALM 0 0 0 0 1030.9 1030.9 0.0
29/10:00pm 9.0 7.2 7.1 88 0.9 NE 6 6 3 3 1030.8 1030.8 0.0
29/09:59pm 9.0 7.2 7.1 88 0.9 NE 6 6 3 3 1030.8 1030.8 0.0
29/09:43pm 8.2 7.3 6.0 86 1.0 CALM 0 0 0 0 1030.9 1030.9 0.0
29/09:30pm 8.9 8.2 6.9 87 0.9 CALM 0 0 0 0 1030.8 1030.8 0.0
29/09:00pm 9.8 9.3 7.7 87 1.0 CALM 0 0 0 0 1030.9 1030.9 0.0
29/08:34pm 9.5 8.9 7.3 86 1.0 CALM 0 0 0 0 1030.7 1030.7 0.0
29/08:30pm 9.4 8.8 7.2 86 1.0 CALM 0 0 0 0 1030.7 1030.7 0.0
29/08:21pm 9.3 8.6 6.9 85 1.1 CALM 0 0 0 0 1030.7 1030.7 0.0
29/08:00pm 9.8 9.1 7.1 83 1.3 CALM 0 0 0 0 1030.8 1030.8 0.0
29/07:30pm 10.2 9.4 6.5 78 1.7 CALM 0 6 0 3 1030.8 1030.8 0.0
29/07:00pm 11.7 9.8 6.6 71 2.4 NE 6 9 3 5 1030.7 1030.7 0.0
29/06:30pm 13.9 11.8 8.3 69 2.8 NE 9 11 5 6 1030.7 1030.7 0.0
29/06:00pm 14.7 12.6 8.4 66 3.1 NE 9 13 5 7 1030.6 1030.6 0.0
29/05:30pm 15.1 13.3 8.1 63 3.5 NE 7 11 4 6 1030.4 1030.4 0.0
29/05:00pm 15.6 13.4 7.9 60 3.8 NE 9 11 5 6 1030.0 1030.0 0.0
29/04:30pm 16.1 14.3 7.3 56 4.4 NE 6 9 3 5 1030.0 1030.0 0.0
29/04:00pm 16.9 15.0 6.7 51 5.0 NE 6 9 3 5 1029.8 1029.8 0.0
29/03:30pm 17.3 14.7 6.2 48 5.4 NNE 9 11 5 6 1029.7 1029.7 0.0
29/03:00pm 18.3 14.9 5.8 44 6.1 ENE 13 17 7 9 1029.7 1029.7 0.0
29/02:30pm 18.1 16.0 6.0 45 5.9 ESE 6 11 3 6 1029.9 1029.9 0.0
29/02:00pm 17.9 14.9 6.1 46 5.7 NNE 11 17 6 9 1030.2 1030.2 0.0
29/01:30pm 18.9 17.3 6.4 44 6.2 NW 4 13 2 7 1030.4 1030.4 0.0
29/01:00pm 18.8 17.9 6.0 43 6.3 CALM 0 6 0 3 1030.6 1030.6 0.0
29/12:30pm 17.8 16.2 6.3 47 5.7 NW 4 9 2 5 1031.2 1031.2 0.0
29/12:00pm 17.0 15.9 6.8 51 5.0 WSW 2 7 1 4 1031.8 1031.8 0.0
29/11:30am 15.9 14.1 7.1 56 4.3 W 6 9 3 5 1032.6 1032.6 0.0
29/11:00am 14.7 12.7 7.3 61 3.6 W 7 11 4 6 1033.0 1033.0 0.0
29/10:30am 13.8 11.5 7.6 66 3.0 NW 9 11 5 6 1033.6 1033.6 0.0
29/10:00am 12.9 10.2 7.4 69 2.6 WNW 11 13 6 7 1033.8 1033.8 0.0
29/09:30am 12.0 10.0 7.3 73 2.3 WNW 7 11 4 6 1033.7 1033.7 0.0
29/09:00am 10.6 8.6 7.1 79 1.6 NW 7 11 4 6 1033.7 1033.7 0.0
29/08:30am 9.6 7.7 7.4 86 1.0 NNW 7 7 4 4 1033.5 1033.5 0.0
29/08:00am 8.6 6.7 6.6 87 0.9 NNW 6 7 3 4 1033.5 1033.5 0.0
29/07:30am 8.2 6.2 6.2 87 0.9 WNW 6 7 3 4 1033.2 1033.2 0.0
29/07:00am 7.7 5.4 5.8 88 0.8 NW 7 7 4 4 1033.1 1033.1 0.0
29/06:30am 7.9 5.8 6.0 88 0.9 NW 6 7 3 4 1032.9 1032.9 0.0
29/06:00am 8.0 5.8 6.1 88 0.9 NW 7 9 4 5 1032.9 1032.9 0.0
29/05:30am 8.2 6.3 6.5 89 0.8 NW 6 7 3 4 1032.5 1032.5 0.0
29/05:00am 8.2 6.1 6.5 89 0.8 NNW 7 9 4 5 1032.6 1032.6 0.0
29/04:30am 8.0 5.4 6.3 89 0.8 NNW 9 11 5 6 1032.4 1032.4 0.0
29/04:00am 8.0 6.0 6.3 89 0.8 NNW 6 9 3 5 1032.3 1032.3 0.0
29/03:30am 7.5 5.4 5.8 89 0.8 SW 6 9 3 5 1032.3 1032.3 0.0
29/03:00am 7.4 5.3 5.9 90 0.7 E 6 7 3 4 1032.4 1032.4 0.0
29/02:30am 6.8 4.6 5.1 89 0.7 E 6 6 3 3 1032.6 1032.6 0.0
29/02:00am 7.5 5.8 5.8 89 0.8 E 4 6 2 3 1032.6 1032.6 0.0
29/01:30am 7.6 6.7 6.1 90 0.7 CALM 0 0 0 0 1032.6 1032.6 0.0
29/01:24am 7.3 6.3 5.6 89 0.8 CALM 0 0 0 0 1032.7 1032.7 0.0
29/01:05am 6.4 4.8 4.6 88 0.8 E 2 6 1 3 1032.7 1032.7 0.0
29/01:00am 6.4 4.4 4.6 88 0.8 E 4 6 2 3 1032.7 1032.7 0.0
29/12:30am 8.1 7.3 6.4 89 0.8 CALM 0 0 0 0 1032.9 1032.9 0.0
29/12:00am 7.6 6.7 5.9 89 0.8 CALM 0 0 0 0 1033.1 1033.1 0.0
 
Date/Time
EST
Temp
°C
App
Temp
°C
Dew
Point
Rel
Hum
%
Delta-T
°C
Wind Press
QNH
hPa
Press
MSL
hPa
Rain
since 9 am
mm
Dir
 
Spd
km/h
Gust
km/h
Spd
kts
Gust
kts
28/11:30pm 7.9 7.0 6.0 88 0.9 CALM 0 0 0 0 1033.2 1033.2 0.0
28/11:07pm 7.9 7.0 6.0 88 0.9 CALM 0 0 0 0 1033.2 1033.2 0.0
28/11:00pm 7.7 6.7 5.8 88 0.8 CALM 0 0 0 0 1033.1 1033.1 0.0
28/10:30pm 8.7 8.0 6.8 88 0.9 CALM 0 0 0 0 1033.1 1033.1 0.0
28/10:00pm 7.9 6.9 5.7 86 1.0 CALM 0 0 0 0 1033.0 1033.0 0.0
28/09:41pm 9.3 8.7 7.3 87 0.9 CALM 0 0 0 0 1033.1 1033.1 0.0
28/09:30pm 9.4 8.8 7.3 87 1.0 CALM 0 0 0 0 1033.2 1033.2 0.0
28/09:00pm 8.9 8.1 6.3 84 1.2 CALM 0 0 0 0 1033.0 1033.0 0.0
28/08:58pm 8.8 7.9 6.2 84 1.2 CALM 0 0 0 0 1033.0 1033.0 0.0
28/08:30pm 10.2 9.6 7.4 83 1.3 CALM 0 0 0 0 1032.8 1032.8 0.0
28/08:00pm 10.4 9.8 7.3 81 1.5 CALM 0 0 0 0 1032.6 1032.6 0.0
28/07:30pm 10.8 10.1 6.9 77 1.8 CALM 0 0 0 0 1032.4 1032.4 0.0
28/07:00pm 12.1 11.7 8.4 78 1.8 CALM 0 0 0 0 1032.2 1032.2 0.0
28/06:30pm 12.3 11.9 8.2 76 2.0 CALM 0 0 0 0 1031.9 1031.9 0.0
28/06:00pm 13.6 13.1 8.0 69 2.7 CALM 0 0 0 0 1031.5 1031.5 0.0
28/05:30pm 15.0 13.2 8.0 63 3.5 E 7 11 4 6 1031.1 1031.1 0.0
28/05:00pm 15.5 13.2 7.5 59 3.9 ESE 9 13 5 7 1031.0 1031.0 0.0
28/04:30pm 16.5 13.3 6.9 53 4.7 ESE 13 15 7 8 1030.9 1030.9 0.0
28/04:00pm 17.2 14.2 6.1 48 5.4 ESE 11 15 6 8 1031.1 1031.1 0.0
28/03:30pm 17.8 15.2 6.0 46 5.8 WNW 9 13 5 7 1030.9 1030.9 0.0
28/03:00pm 17.7 15.3 5.3 44 5.9 WNW 7 13 4 7 1030.9 1030.9 0.0
28/02:30pm 18.0 15.8 6.2 46 5.8 NNW 7 9 4 5 1031.1 1031.1 0.0
28/02:00pm 17.8 16.0 5.4 44 5.9 WNW 4 7 2 4 1030.9 1030.9 0.0
28/01:30pm 17.0 15.1 4.7 44 5.8 N 4 7 2 4 1031.1 1031.1 0.0
28/01:00pm 16.3 14.2 4.0 44 5.7 NW 4 7 2 4 1031.3 1031.3 0.0
28/12:30pm 16.5 14.1 4.2 44 5.7 W 6 13 3 7 1031.7 1031.7 0.0
28/12:00pm 15.6 13.0 4.3 47 5.2 WNW 7 11 4 6 1032.0 1032.0 0.0
28/11:30am 14.2 11.2 3.9 50 4.7 W 9 13 5 7 1032.6 1032.6 0.0
28/11:00am 13.0 10.0 3.9 54 4.1 WSW 9 13 5 7 1033.0 1033.0 0.0
28/10:30am 12.1 8.8 4.3 59 3.5 WSW 11 15 6 8 1033.5 1033.5 0.0
28/10:00am 11.4 8.1 4.8 64 3.0 WSW 11 15 6 8 1033.5 1033.5 0.0
28/09:30am 10.3 7.4 4.5 67 2.6 W 9 13 5 7 1033.4 1033.4 0.0
28/09:00am 9.1 6.2 4.5 73 2.0 W 9 13 5 7 1033.1 1033.1 0.0
28/08:30am 8.1 5.2 4.7 79 1.5 WNW 9 11 5 6 1033.0 1033.0 0.0
28/08:00am 6.7 4.2 4.5 86 0.9 NW 7 9 4 5 1032.9 1032.9 0.0
28/07:30am 5.5 2.4 3.5 87 0.8 NNW 9 11 5 6 1032.5 1032.5 0.0
28/07:00am 5.1 2.3 3.1 87 0.8 N 7 9 4 5 1032.1 1032.1 0.0
28/06:30am 4.5 1.2 2.4 86 0.8 NW 9 13 5 7 1031.8 1031.8 0.0
28/06:00am 5.4 2.7 3.6 88 0.7 NNW 7 9 4 5 1031.4 1031.4 0.0
28/05:30am 5.3 2.8 3.5 88 0.7 NNW 6 6 3 3 1031.2 1031.2 0.0
28/05:00am 5.8 3.2 4.1 89 0.7 NNW 7 9 4 5 1030.9 1030.9 0.0
28/04:30am 6.0 3.5 4.5 90 0.6 NNW 7 9 4 5 1030.7 1030.7 0.0
28/04:00am 5.8 3.4 4.3 90 0.6 NNW 6 9 3 5 1030.6 1030.6 0.0
28/03:30am 5.8 4.6 4.4 91 0.6 CALM 0 0 0 0 1030.7 1030.7 0.0
28/03:26am 5.9 4.7 4.5 91 0.6 CALM 0 0 0 0 1030.8 1030.8 0.0
28/03:00am 5.2 3.8 3.7 90 0.6 CALM 0 0 0 0 1030.8 1030.8 0.0
28/02:38am 5.3 3.9 3.8 90 0.6 CALM 0 0 0 0 1030.7 1030.7 0.0

Other Formats:

Comma delimited format used in spreadsheet applications
http://www.bom.gov.au/fwo/IDN60801/IDN60801.94765.axf

JavaScript Object Notation format (JSON) in row-major order
http://www.bom.gov.au/fwo/IDN60801/IDN60801.94765.json